sensor_id;sensor_type;location;lat;lon;timestamp;P1;durP1;ratioP1;P2;durP2;ratioP2
62401;SDS011;48440;51.224;22.506;2023-02-26T00:01:58;14.18;;;8.30;;
62401;SDS011;48440;51.224;22.506;2023-02-26T00:04:26;10.57;;;7.65;;
62401;SDS011;48440;51.224;22.506;2023-02-26T00:06:55;13.15;;;7.22;;
62401;SDS011;48440;51.224;22.506;2023-02-26T00:09:21;14.35;;;8.00;;
62401;SDS011;48440;51.224;22.506;2023-02-26T00:11:47;13.48;;;7.50;;
62401;SDS011;48440;51.224;22.506;2023-02-26T00:14:14;12.18;;;7.75;;
62401;SDS011;48440;51.224;22.506;2023-02-26T00:16:40;11.18;;;7.13;;
62401;SDS011;48440;51.224;22.506;2023-02-26T00:19:09;10.18;;;6.38;;
62401;SDS011;48440;51.224;22.506;2023-02-26T00:21:36;11.98;;;7.32;;
62401;SDS011;48440;51.224;22.506;2023-02-26T00:24:02;12.65;;;7.25;;
62401;SDS011;48440;51.224;22.506;2023-02-26T00:26:30;11.20;;;7.13;;
62401;SDS011;48440;51.224;22.506;2023-02-26T00:28:56;10.93;;;7.10;;
62401;SDS011;48440;51.224;22.506;2023-02-26T00:31:23;12.55;;;7.07;;
62401;SDS011;48440;51.224;22.506;2023-02-26T00:33:49;12.35;;;7.35;;
62401;SDS011;48440;51.224;22.506;2023-02-26T00:39:35;10.48;;;6.55;;
62401;SDS011;48440;51.224;22.506;2023-02-26T00:41:57;8.68;;;6.40;;
62401;SDS011;48440;51.224;22.506;2023-02-26T00:44:23;9.15;;;6.28;;
62401;SDS011;48440;51.224;22.506;2023-02-26T00:46:53;9.73;;;6.45;;
62401;SDS011;48440;51.224;22.506;2023-02-26T00:49:43;7.70;;;5.72;;
62401;SDS011;48440;51.224;22.506;2023-02-26T00:52:36;8.18;;;5.75;;
62401;SDS011;48440;51.224;22.506;2023-02-26T01:02:41;9.38;;;5.72;;
62401;SDS011;48440;51.224;22.506;2023-02-26T01:08:31;9.55;;;6.03;;
62401;SDS011;48440;51.224;22.506;2023-02-26T01:11:01;10.73;;;6.43;;
62401;SDS011;48440;51.224;22.506;2023-02-26T01:13:28;8.50;;;6.43;;
62401;SDS011;48440;51.224;22.506;2023-02-26T01:16:08;8.50;;;5.75;;
62401;SDS011;48440;51.224;22.506;2023-02-26T01:25:13;7.60;;;5.20;;
62401;SDS011;48440;51.224;22.506;2023-02-26T01:27:43;6.30;;;4.80;;
62401;SDS011;48440;51.224;22.506;2023-02-26T01:30:09;6.18;;;5.20;;
62401;SDS011;48440;51.224;22.506;2023-02-26T01:35:27;8.80;;;5.25;;
62401;SDS011;48440;51.224;22.506;2023-02-26T01:38:10;6.60;;;5.18;;
62401;SDS011;48440;51.224;22.506;2023-02-26T01:43:48;7.40;;;5.50;;
62401;SDS011;48440;51.224;22.506;2023-02-26T01:49:18;7.63;;;5.63;;
62401;SDS011;48440;51.224;22.506;2023-02-26T01:51:57;8.27;;;5.70;;
62401;SDS011;48440;51.224;22.506;2023-02-26T01:57:01;7.05;;;5.60;;
62401;SDS011;48440;51.224;22.506;2023-02-26T01:59:29;9.70;;;5.90;;
62401;SDS011;48440;51.224;22.506;2023-02-26T02:01:57;7.00;;;5.60;;
62401;SDS011;48440;51.224;22.506;2023-02-26T02:04:24;8.65;;;6.00;;
62401;SDS011;48440;51.224;22.506;2023-02-26T02:06:51;7.05;;;5.50;;
62401;SDS011;48440;51.224;22.506;2023-02-26T02:09:18;8.40;;;5.55;;
62401;SDS011;48440;51.224;22.506;2023-02-26T02:11:53;6.50;;;4.93;;
62401;SDS011;48440;51.224;22.506;2023-02-26T02:14:52;6.47;;;5.05;;
62401;SDS011;48440;51.224;22.506;2023-02-26T02:33:21;7.50;;;5.05;;
62401;SDS011;48440;51.224;22.506;2023-02-26T02:35:53;7.05;;;6.10;;
62401;SDS011;48440;51.224;22.506;2023-02-26T02:40:57;7.35;;;5.78;;
62401;SDS011;48440;51.224;22.506;2023-02-26T02:43:32;7.55;;;5.65;;
62401;SDS011;48440;51.224;22.506;2023-02-26T02:46:09;8.30;;;5.38;;
62401;SDS011;48440;51.224;22.506;2023-02-26T02:48:45;7.57;;;5.30;;
62401;SDS011;48440;51.224;22.506;2023-02-26T02:51:18;5.53;;;4.90;;
62401;SDS011;48440;51.224;22.506;2023-02-26T02:53:51;7.50;;;4.85;;
62401;SDS011;48440;51.224;22.506;2023-02-26T02:56:33;6.05;;;4.38;;
62401;SDS011;48440;51.224;22.506;2023-02-26T03:01:35;6.10;;;4.07;;
62401;SDS011;48440;51.224;22.506;2023-02-26T03:04:11;6.75;;;4.30;;
62401;SDS011;48440;51.224;22.506;2023-02-26T03:06:40;8.30;;;5.65;;
62401;SDS011;48440;51.224;22.506;2023-02-26T03:09:07;6.80;;;5.40;;
62401;SDS011;48440;51.224;22.506;2023-02-26T03:11:34;7.05;;;5.20;;
62401;SDS011;48440;51.224;22.506;2023-02-26T03:14:00;7.22;;;5.07;;
62401;SDS011;48440;51.224;22.506;2023-02-26T03:22:10;7.15;;;4.43;;
62401;SDS011;48440;51.224;22.506;2023-02-26T03:24:54;7.63;;;4.90;;
62401;SDS011;48440;51.224;22.506;2023-02-26T03:30:06;6.72;;;4.60;;
62401;SDS011;48440;51.224;22.506;2023-02-26T03:35:33;5.80;;;4.80;;
62401;SDS011;48440;51.224;22.506;2023-02-26T03:38:01;5.85;;;4.55;;
62401;SDS011;48440;51.224;22.506;2023-02-26T03:40:45;7.13;;;4.90;;
62401;SDS011;48440;51.224;22.506;2023-02-26T03:43:23;5.95;;;4.30;;
62401;SDS011;48440;51.224;22.506;2023-02-26T03:46:04;5.72;;;4.22;;
62401;SDS011;48440;51.224;22.506;2023-02-26T03:48:33;6.75;;;4.60;;
62401;SDS011;48440;51.224;22.506;2023-02-26T03:51:02;5.50;;;4.25;;
62401;SDS011;48440;51.224;22.506;2023-02-26T03:53:38;5.95;;;4.60;;
62401;SDS011;48440;51.224;22.506;2023-02-26T03:56:20;6.40;;;4.50;;
62401;SDS011;48440;51.224;22.506;2023-02-26T03:58:53;8.73;;;4.35;;
62401;SDS011;48440;51.224;22.506;2023-02-26T04:01:21;8.93;;;4.80;;
62401;SDS011;48440;51.224;22.506;2023-02-26T04:04:01;8.45;;;5.25;;
62401;SDS011;48440;51.224;22.506;2023-02-26T04:06:31;7.38;;;5.20;;
62401;SDS011;48440;51.224;22.506;2023-02-26T04:09:18;8.02;;;4.75;;
62401;SDS011;48440;51.224;22.506;2023-02-26T04:16:58;8.40;;;5.72;;
62401;SDS011;48440;51.224;22.506;2023-02-26T04:19:23;8.60;;;5.78;;
62401;SDS011;48440;51.224;22.506;2023-02-26T04:21:49;7.65;;;5.25;;
62401;SDS011;48440;51.224;22.506;2023-02-26T04:24:15;7.88;;;5.03;;
62401;SDS011;48440;51.224;22.506;2023-02-26T04:26:41;8.60;;;5.10;;
62401;SDS011;48440;51.224;22.506;2023-02-26T04:29:06;7.32;;;4.18;;
62401;SDS011;48440;51.224;22.506;2023-02-26T04:31:31;5.75;;;4.13;;
62401;SDS011;48440;51.224;22.506;2023-02-26T04:33:57;4.63;;;3.60;;
62401;SDS011;48440;51.224;22.506;2023-02-26T04:36:31;6.15;;;3.80;;
62401;SDS011;48440;51.224;22.506;2023-02-26T04:39:37;5.97;;;3.50;;
62401;SDS011;48440;51.224;22.506;2023-02-26T04:43:01;6.22;;;3.80;;
62401;SDS011;48440;51.224;22.506;2023-02-26T04:45:38;8.20;;;3.60;;
62401;SDS011;48440;51.224;22.506;2023-02-26T04:48:10;5.00;;;3.38;;
62401;SDS011;48440;51.224;22.506;2023-02-26T04:50:37;5.97;;;3.50;;
62401;SDS011;48440;51.224;22.506;2023-02-26T04:53:03;5.03;;;3.63;;
62401;SDS011;48440;51.224;22.506;2023-02-26T04:55:28;7.28;;;3.35;;
62401;SDS011;48440;51.224;22.506;2023-02-26T04:57:54;4.97;;;3.05;;
62401;SDS011;48440;51.224;22.506;2023-02-26T05:00:20;5.32;;;3.05;;
62401;SDS011;48440;51.224;22.506;2023-02-26T05:02:46;6.35;;;3.30;;
62401;SDS011;48440;51.224;22.506;2023-02-26T05:05:11;4.55;;;2.72;;
62401;SDS011;48440;51.224;22.506;2023-02-26T05:07:40;4.85;;;3.30;;
62401;SDS011;48440;51.224;22.506;2023-02-26T05:10:06;6.80;;;3.08;;
62401;SDS011;48440;51.224;22.506;2023-02-26T05:12:32;5.68;;;3.22;;
62401;SDS011;48440;51.224;22.506;2023-02-26T05:14:58;7.03;;;3.10;;
62401;SDS011;48440;51.224;22.506;2023-02-26T05:17:24;6.85;;;3.67;;
62401;SDS011;48440;51.224;22.506;2023-02-26T05:19:49;6.38;;;3.50;;
62401;SDS011;48440;51.224;22.506;2023-02-26T05:22:15;6.05;;;3.47;;
62401;SDS011;48440;51.224;22.506;2023-02-26T05:24:41;5.80;;;3.25;;
62401;SDS011;48440;51.224;22.506;2023-02-26T05:27:08;6.22;;;3.47;;
62401;SDS011;48440;51.224;22.506;2023-02-26T05:29:33;6.25;;;3.50;;
62401;SDS011;48440;51.224;22.506;2023-02-26T05:31:59;6.90;;;3.50;;
62401;SDS011;48440;51.224;22.506;2023-02-26T05:34:25;4.93;;;3.20;;
62401;SDS011;48440;51.224;22.506;2023-02-26T05:36:50;5.82;;;3.60;;
62401;SDS011;48440;51.224;22.506;2023-02-26T05:39:16;4.55;;;3.17;;
62401;SDS011;48440;51.224;22.506;2023-02-26T05:41:42;6.32;;;3.30;;
62401;SDS011;48440;51.224;22.506;2023-02-26T05:44:07;6.15;;;3.60;;
62401;SDS011;48440;51.224;22.506;2023-02-26T05:46:33;6.03;;;4.00;;
62401;SDS011;48440;51.224;22.506;2023-02-26T05:48:59;6.88;;;3.85;;
62401;SDS011;48440;51.224;22.506;2023-02-26T05:51:25;6.10;;;3.72;;
62401;SDS011;48440;51.224;22.506;2023-02-26T05:53:50;7.47;;;3.80;;
62401;SDS011;48440;51.224;22.506;2023-02-26T05:56:16;7.68;;;4.50;;
62401;SDS011;48440;51.224;22.506;2023-02-26T05:58:43;6.72;;;3.63;;
62401;SDS011;48440;51.224;22.506;2023-02-26T06:01:08;5.03;;;3.40;;
62401;SDS011;48440;51.224;22.506;2023-02-26T06:03:34;6.03;;;3.33;;
62401;SDS011;48440;51.224;22.506;2023-02-26T06:06:00;4.43;;;2.70;;
62401;SDS011;48440;51.224;22.506;2023-02-26T06:08:26;3.63;;;2.28;;
62401;SDS011;48440;51.224;22.506;2023-02-26T06:10:52;4.93;;;3.22;;
62401;SDS011;48440;51.224;22.506;2023-02-26T06:13:18;3.80;;;2.38;;
62401;SDS011;48440;51.224;22.506;2023-02-26T06:15:44;4.07;;;2.40;;
62401;SDS011;48440;51.224;22.506;2023-02-26T06:18:11;4.60;;;2.80;;
62401;SDS011;48440;51.224;22.506;2023-02-26T06:20:39;5.28;;;3.30;;
62401;SDS011;48440;51.224;22.506;2023-02-26T06:23:05;5.28;;;2.83;;
62401;SDS011;48440;51.224;22.506;2023-02-26T06:25:31;4.72;;;3.28;;
62401;SDS011;48440;51.224;22.506;2023-02-26T06:27:56;6.55;;;3.55;;
62401;SDS011;48440;51.224;22.506;2023-02-26T06:30:22;6.22;;;3.58;;
62401;SDS011;48440;51.224;22.506;2023-02-26T06:32:48;6.50;;;3.42;;
62401;SDS011;48440;51.224;22.506;2023-02-26T06:35:14;6.10;;;3.47;;
62401;SDS011;48440;51.224;22.506;2023-02-26T06:37:39;6.20;;;3.67;;
62401;SDS011;48440;51.224;22.506;2023-02-26T06:40:05;6.78;;;3.30;;
62401;SDS011;48440;51.224;22.506;2023-02-26T06:42:32;6.00;;;3.28;;
62401;SDS011;48440;51.224;22.506;2023-02-26T06:44:58;5.13;;;3.17;;
62401;SDS011;48440;51.224;22.506;2023-02-26T06:47:24;7.20;;;3.47;;
62401;SDS011;48440;51.224;22.506;2023-02-26T06:49:50;6.68;;;3.60;;
62401;SDS011;48440;51.224;22.506;2023-02-26T06:52:15;6.22;;;3.20;;
62401;SDS011;48440;51.224;22.506;2023-02-26T06:54:41;5.05;;;3.10;;
62401;SDS011;48440;51.224;22.506;2023-02-26T06:57:07;7.75;;;3.15;;
62401;SDS011;48440;51.224;22.506;2023-02-26T06:59:33;6.13;;;3.40;;
62401;SDS011;48440;51.224;22.506;2023-02-26T07:01:58;7.50;;;4.00;;
62401;SDS011;48440;51.224;22.506;2023-02-26T07:04:24;6.13;;;3.47;;
62401;SDS011;48440;51.224;22.506;2023-02-26T07:06:50;7.13;;;4.20;;
62401;SDS011;48440;51.224;22.506;2023-02-26T07:09:15;6.13;;;4.00;;
62401;SDS011;48440;51.224;22.506;2023-02-26T07:11:41;7.30;;;4.03;;
62401;SDS011;48440;51.224;22.506;2023-02-26T07:14:06;6.72;;;4.00;;
62401;SDS011;48440;51.224;22.506;2023-02-26T07:16:33;8.80;;;4.38;;
62401;SDS011;48440;51.224;22.506;2023-02-26T07:18:58;7.75;;;4.20;;
62401;SDS011;48440;51.224;22.506;2023-02-26T07:21:24;7.25;;;4.50;;
62401;SDS011;48440;51.224;22.506;2023-02-26T07:23:50;7.75;;;4.35;;
62401;SDS011;48440;51.224;22.506;2023-02-26T07:26:15;7.85;;;4.45;;
62401;SDS011;48440;51.224;22.506;2023-02-26T07:28:41;6.95;;;3.88;;
62401;SDS011;48440;51.224;22.506;2023-02-26T07:31:07;8.82;;;4.05;;
62401;SDS011;48440;51.224;22.506;2023-02-26T07:33:33;12.85;;;5.93;;
62401;SDS011;48440;51.224;22.506;2023-02-26T07:35:59;11.45;;;6.07;;
62401;SDS011;48440;51.224;22.506;2023-02-26T07:38:25;7.82;;;4.40;;
62401;SDS011;48440;51.224;22.506;2023-02-26T07:40:53;7.50;;;4.20;;
62401;SDS011;48440;51.224;22.506;2023-02-26T07:43:20;8.43;;;4.38;;
62401;SDS011;48440;51.224;22.506;2023-02-26T07:45:48;10.43;;;3.97;;
62401;SDS011;48440;51.224;22.506;2023-02-26T07:48:15;7.85;;;3.65;;
62401;SDS011;48440;51.224;22.506;2023-02-26T07:50:41;6.75;;;3.90;;
62401;SDS011;48440;51.224;22.506;2023-02-26T07:53:07;6.57;;;3.95;;
62401;SDS011;48440;51.224;22.506;2023-02-26T07:55:33;12.70;;;5.00;;
62401;SDS011;48440;51.224;22.506;2023-02-26T07:57:58;8.30;;;4.75;;
62401;SDS011;48440;51.224;22.506;2023-02-26T08:00:24;7.95;;;4.72;;
62401;SDS011;48440;51.224;22.506;2023-02-26T08:02:50;8.65;;;4.53;;
62401;SDS011;48440;51.224;22.506;2023-02-26T08:05:18;6.82;;;3.97;;
62401;SDS011;48440;51.224;22.506;2023-02-26T08:07:44;6.15;;;3.50;;
62401;SDS011;48440;51.224;22.506;2023-02-26T08:10:09;7.43;;;3.92;;
62401;SDS011;48440;51.224;22.506;2023-02-26T08:12:36;8.15;;;4.82;;
62401;SDS011;48440;51.224;22.506;2023-02-26T08:15:10;9.25;;;4.18;;
62401;SDS011;48440;51.224;22.506;2023-02-26T08:17:38;8.68;;;4.22;;
62401;SDS011;48440;51.224;22.506;2023-02-26T08:20:05;6.47;;;3.72;;
62401;SDS011;48440;51.224;22.506;2023-02-26T08:22:39;8.40;;;3.67;;
62401;SDS011;48440;51.224;22.506;2023-02-26T08:25:05;6.80;;;4.03;;
62401;SDS011;48440;51.224;22.506;2023-02-26T08:27:32;8.48;;;4.63;;
62401;SDS011;48440;51.224;22.506;2023-02-26T08:29:57;8.48;;;4.07;;
62401;SDS011;48440;51.224;22.506;2023-02-26T08:32:23;7.28;;;3.75;;
62401;SDS011;48440;51.224;22.506;2023-02-26T08:34:52;6.75;;;3.55;;
62401;SDS011;48440;51.224;22.506;2023-02-26T08:37:18;6.45;;;3.58;;
62401;SDS011;48440;51.224;22.506;2023-02-26T08:39:46;7.88;;;4.25;;
62401;SDS011;48440;51.224;22.506;2023-02-26T08:42:12;6.57;;;3.83;;
62401;SDS011;48440;51.224;22.506;2023-02-26T08:44:40;6.68;;;3.83;;
62401;SDS011;48440;51.224;22.506;2023-02-26T08:47:07;8.60;;;4.35;;
62401;SDS011;48440;51.224;22.506;2023-02-26T08:49:33;5.75;;;3.75;;
62401;SDS011;48440;51.224;22.506;2023-02-26T08:51:58;6.43;;;4.05;;
62401;SDS011;48440;51.224;22.506;2023-02-26T08:54:26;6.57;;;4.43;;
62401;SDS011;48440;51.224;22.506;2023-02-26T08:56:53;6.82;;;4.05;;
62401;SDS011;48440;51.224;22.506;2023-02-26T08:59:24;9.70;;;4.75;;
62401;SDS011;48440;51.224;22.506;2023-02-26T09:01:59;8.45;;;4.15;;
62401;SDS011;48440;51.224;22.506;2023-02-26T09:04:31;10.52;;;4.55;;
62401;SDS011;48440;51.224;22.506;2023-02-26T09:06:57;6.82;;;4.25;;
62401;SDS011;48440;51.224;22.506;2023-02-26T09:09:22;7.85;;;4.53;;
62401;SDS011;48440;51.224;22.506;2023-02-26T09:11:48;7.05;;;3.47;;
62401;SDS011;48440;51.224;22.506;2023-02-26T09:14:14;7.07;;;3.45;;
62401;SDS011;48440;51.224;22.506;2023-02-26T09:16:40;5.88;;;3.33;;
62401;SDS011;48440;51.224;22.506;2023-02-26T09:19:06;7.35;;;3.42;;
62401;SDS011;48440;51.224;22.506;2023-02-26T09:21:32;7.38;;;3.60;;
62401;SDS011;48440;51.224;22.506;2023-02-26T09:24:00;7.35;;;3.75;;
62401;SDS011;48440;51.224;22.506;2023-02-26T09:26:25;6.18;;;3.35;;
62401;SDS011;48440;51.224;22.506;2023-02-26T09:28:57;5.47;;;3.38;;
62401;SDS011;48440;51.224;22.506;2023-02-26T09:31:22;7.38;;;3.60;;
62401;SDS011;48440;51.224;22.506;2023-02-26T09:33:48;6.70;;;3.55;;
62401;SDS011;48440;51.224;22.506;2023-02-26T09:36:14;7.60;;;3.38;;
62401;SDS011;48440;51.224;22.506;2023-02-26T09:38:40;6.70;;;3.33;;
62401;SDS011;48440;51.224;22.506;2023-02-26T09:41:09;7.18;;;3.53;;
62401;SDS011;48440;51.224;22.506;2023-02-26T09:54:43;7.10;;;3.45;;
62401;SDS011;48440;51.224;22.506;2023-02-26T09:57:17;6.97;;;3.22;;
62401;SDS011;48440;51.224;22.506;2023-02-26T09:59:50;6.53;;;3.22;;
62401;SDS011;48440;51.224;22.506;2023-02-26T10:12:42;5.65;;;3.28;;
62401;SDS011;48440;51.224;22.506;2023-02-26T10:15:10;6.70;;;3.72;;
62401;SDS011;48440;51.224;22.506;2023-02-26T10:23:22;9.75;;;4.07;;
62401;SDS011;48440;51.224;22.506;2023-02-26T10:28:43;7.75;;;4.18;;
62401;SDS011;48440;51.224;22.506;2023-02-26T10:31:41;7.35;;;3.47;;
62401;SDS011;48440;51.224;22.506;2023-02-26T10:39:43;8.38;;;3.40;;
62401;SDS011;48440;51.224;22.506;2023-02-26T10:42:20;5.97;;;3.38;;
62401;SDS011;48440;51.224;22.506;2023-02-26T10:44:55;8.80;;;3.70;;
62401;SDS011;48440;51.224;22.506;2023-02-26T10:50:28;8.57;;;3.75;;
62401;SDS011;48440;51.224;22.506;2023-02-26T10:52:55;8.70;;;3.95;;
62401;SDS011;48440;51.224;22.506;2023-02-26T10:55:27;8.57;;;4.13;;
62401;SDS011;48440;51.224;22.506;2023-02-26T10:58:11;6.22;;;3.72;;
62401;SDS011;48440;51.224;22.506;2023-02-26T11:00:48;6.07;;;3.38;;
62401;SDS011;48440;51.224;22.506;2023-02-26T11:03:40;6.50;;;3.42;;
62401;SDS011;48440;51.224;22.506;2023-02-26T11:06:05;7.82;;;4.13;;
62401;SDS011;48440;51.224;22.506;2023-02-26T11:08:38;7.85;;;4.47;;
62401;SDS011;48440;51.224;22.506;2023-02-26T11:11:06;7.40;;;4.07;;
62401;SDS011;48440;51.224;22.506;2023-02-26T11:13:33;6.78;;;3.58;;
62401;SDS011;48440;51.224;22.506;2023-02-26T11:16:10;6.53;;;3.55;;
62401;SDS011;48440;51.224;22.506;2023-02-26T11:18:43;6.15;;;3.80;;
62401;SDS011;48440;51.224;22.506;2023-02-26T11:21:16;6.18;;;3.88;;
62401;SDS011;48440;51.224;22.506;2023-02-26T11:23:46;6.78;;;3.40;;
62401;SDS011;48440;51.224;22.506;2023-02-26T11:26:17;8.65;;;3.47;;
62401;SDS011;48440;51.224;22.506;2023-02-26T11:28:45;6.97;;;3.70;;
62401;SDS011;48440;51.224;22.506;2023-02-26T11:31:14;6.72;;;3.60;;
62401;SDS011;48440;51.224;22.506;2023-02-26T11:33:44;5.45;;;2.95;;
62401;SDS011;48440;51.224;22.506;2023-02-26T11:36:13;5.63;;;3.08;;
62401;SDS011;48440;51.224;22.506;2023-02-26T11:38:46;6.38;;;3.80;;
62401;SDS011;48440;51.224;22.506;2023-02-26T11:41:19;6.13;;;3.92;;
62401;SDS011;48440;51.224;22.506;2023-02-26T11:43:47;8.82;;;3.90;;
62401;SDS011;48440;51.224;22.506;2023-02-26T11:46:19;6.72;;;3.53;;
62401;SDS011;48440;51.224;22.506;2023-02-26T11:48:48;8.52;;;4.03;;
62401;SDS011;48440;51.224;22.506;2023-02-26T11:51:23;8.07;;;3.85;;
62401;SDS011;48440;51.224;22.506;2023-02-26T11:56:21;8.23;;;4.38;;
62401;SDS011;48440;51.224;22.506;2023-02-26T11:58:50;8.93;;;4.67;;
62401;SDS011;48440;51.224;22.506;2023-02-26T12:01:17;9.57;;;4.07;;
62401;SDS011;48440;51.224;22.506;2023-02-26T12:03:46;5.47;;;3.67;;
62401;SDS011;48440;51.224;22.506;2023-02-26T12:06:22;6.60;;;3.40;;
62401;SDS011;48440;51.224;22.506;2023-02-26T12:08:50;6.78;;;3.83;;
62401;SDS011;48440;51.224;22.506;2023-02-26T12:11:30;4.55;;;3.17;;
62401;SDS011;48440;51.224;22.506;2023-02-26T12:33:40;6.18;;;3.63;;
62401;SDS011;48440;51.224;22.506;2023-02-26T12:47:45;9.23;;;4.40;;
62401;SDS011;48440;51.224;22.506;2023-02-26T12:55:48;8.18;;;4.30;;
62401;SDS011;48440;51.224;22.506;2023-02-26T13:01:07;7.35;;;4.40;;
62401;SDS011;48440;51.224;22.506;2023-02-26T13:20:41;10.80;;;5.25;;
62401;SDS011;48440;51.224;22.506;2023-02-26T13:23:20;11.65;;;5.47;;
62401;SDS011;48440;51.224;22.506;2023-02-26T13:25:50;11.05;;;5.55;;
62401;SDS011;48440;51.224;22.506;2023-02-26T13:28:35;10.23;;;4.78;;
62401;SDS011;48440;51.224;22.506;2023-02-26T13:31:10;8.70;;;4.88;;
62401;SDS011;48440;51.224;22.506;2023-02-26T13:33:45;8.52;;;4.18;;
62401;SDS011;48440;51.224;22.506;2023-02-26T13:36:13;7.28;;;4.00;;
62401;SDS011;48440;51.224;22.506;2023-02-26T13:38:44;8.38;;;3.95;;
62401;SDS011;48440;51.224;22.506;2023-02-26T13:44:23;7.32;;;3.88;;
62401;SDS011;48440;51.224;22.506;2023-02-26T13:47:14;8.23;;;4.07;;
62401;SDS011;48440;51.224;22.506;2023-02-26T13:50:02;7.35;;;4.22;;
62401;SDS011;48440;51.224;22.506;2023-02-26T13:52:30;13.25;;;4.45;;
62401;SDS011;48440;51.224;22.506;2023-02-26T13:55:00;11.40;;;4.07;;
62401;SDS011;48440;51.224;22.506;2023-02-26T14:00:07;9.80;;;4.60;;
62401;SDS011;48440;51.224;22.506;2023-02-26T14:05:23;12.98;;;4.55;;
62401;SDS011;48440;51.224;22.506;2023-02-26T14:10:28;11.50;;;4.63;;
62401;SDS011;48440;51.224;22.506;2023-02-26T14:15:47;13.68;;;5.57;;
62401;SDS011;48440;51.224;22.506;2023-02-26T14:18:30;13.73;;;6.20;;
62401;SDS011;48440;51.224;22.506;2023-02-26T14:23:49;14.77;;;5.95;;
62401;SDS011;48440;51.224;22.506;2023-02-26T14:26:19;9.88;;;5.18;;
62401;SDS011;48440;51.224;22.506;2023-02-26T14:34:47;7.95;;;4.68;;
62401;SDS011;48440;51.224;22.506;2023-02-26T14:37:16;7.78;;;4.07;;
62401;SDS011;48440;51.224;22.506;2023-02-26T14:39:47;6.93;;;3.53;;
62401;SDS011;48440;51.224;22.506;2023-02-26T14:42:22;9.05;;;4.18;;
62401;SDS011;48440;51.224;22.506;2023-02-26T14:44:54;8.65;;;4.18;;
62401;SDS011;48440;51.224;22.506;2023-02-26T14:47:31;8.27;;;4.65;;
62401;SDS011;48440;51.224;22.506;2023-02-26T14:49:56;9.38;;;4.40;;
62401;SDS011;48440;51.224;22.506;2023-02-26T14:55:06;10.82;;;5.20;;
62401;SDS011;48440;51.224;22.506;2023-02-26T14:57:45;14.85;;;5.97;;
62401;SDS011;48440;51.224;22.506;2023-02-26T15:00:36;16.95;;;5.88;;
62401;SDS011;48440;51.224;22.506;2023-02-26T15:03:09;15.48;;;5.82;;
62401;SDS011;48440;51.224;22.506;2023-02-26T15:05:53;14.75;;;6.15;;
62401;SDS011;48440;51.224;22.506;2023-02-26T15:08:50;12.05;;;5.53;;
62401;SDS011;48440;51.224;22.506;2023-02-26T15:24:42;10.30;;;5.03;;
62401;SDS011;48440;51.224;22.506;2023-02-26T15:27:09;9.52;;;4.70;;
62401;SDS011;48440;51.224;22.506;2023-02-26T15:29:39;10.73;;;4.80;;
62401;SDS011;48440;51.224;22.506;2023-02-26T15:34:57;9.30;;;5.03;;
62401;SDS011;48440;51.224;22.506;2023-02-26T15:39:52;11.70;;;5.45;;
62401;SDS011;48440;51.224;22.506;2023-02-26T15:42:18;15.85;;;6.93;;
62401;SDS011;48440;51.224;22.506;2023-02-26T15:44:45;15.85;;;6.18;;
62401;SDS011;48440;51.224;22.506;2023-02-26T15:47:13;15.50;;;5.57;;
62401;SDS011;48440;51.224;22.506;2023-02-26T15:49:44;12.10;;;5.60;;
62401;SDS011;48440;51.224;22.506;2023-02-26T15:52:16;10.63;;;4.57;;
62401;SDS011;48440;51.224;22.506;2023-02-26T15:54:46;10.43;;;5.40;;
62401;SDS011;48440;51.224;22.506;2023-02-26T15:57:17;8.50;;;4.97;;
62401;SDS011;48440;51.224;22.506;2023-02-26T15:59:46;9.55;;;4.97;;
62401;SDS011;48440;51.224;22.506;2023-02-26T16:02:14;11.15;;;5.22;;
62401;SDS011;48440;51.224;22.506;2023-02-26T16:04:42;11.13;;;5.00;;
62401;SDS011;48440;51.224;22.506;2023-02-26T16:07:08;9.43;;;5.03;;
62401;SDS011;48440;51.224;22.506;2023-02-26T16:09:37;9.48;;;4.70;;
62401;SDS011;48440;51.224;22.506;2023-02-26T16:12:08;8.50;;;3.72;;
62401;SDS011;48440;51.224;22.506;2023-02-26T16:14:40;8.27;;;4.57;;
62401;SDS011;48440;51.224;22.506;2023-02-26T16:17:11;12.55;;;5.53;;
62401;SDS011;48440;51.224;22.506;2023-02-26T16:19:46;10.18;;;4.47;;
62401;SDS011;48440;51.224;22.506;2023-02-26T16:27:47;12.05;;;6.00;;
62401;SDS011;48440;51.224;22.506;2023-02-26T16:30:37;10.88;;;5.25;;
62401;SDS011;48440;51.224;22.506;2023-02-26T16:33:08;12.15;;;5.53;;
62401;SDS011;48440;51.224;22.506;2023-02-26T16:35:40;11.25;;;5.38;;
62401;SDS011;48440;51.224;22.506;2023-02-26T16:38:11;8.32;;;4.00;;
62401;SDS011;48440;51.224;22.506;2023-02-26T16:46:16;13.20;;;5.43;;
62401;SDS011;48440;51.224;22.506;2023-02-26T16:51:23;14.40;;;5.35;;
62401;SDS011;48440;51.224;22.506;2023-02-26T16:53:55;10.07;;;4.75;;
62401;SDS011;48440;51.224;22.506;2023-02-26T16:56:27;12.05;;;5.53;;
62401;SDS011;48440;51.224;22.506;2023-02-26T17:04:14;11.38;;;5.47;;
62401;SDS011;48440;51.224;22.506;2023-02-26T17:06:42;14.25;;;6.25;;
62401;SDS011;48440;51.224;22.506;2023-02-26T17:09:22;12.68;;;5.25;;
62401;SDS011;48440;51.224;22.506;2023-02-26T17:11:50;12.63;;;5.95;;
62401;SDS011;48440;51.224;22.506;2023-02-26T17:14:26;11.32;;;5.85;;
62401;SDS011;48440;51.224;22.506;2023-02-26T17:16:57;13.40;;;6.63;;
62401;SDS011;48440;51.224;22.506;2023-02-26T17:19:22;17.38;;;7.55;;
62401;SDS011;48440;51.224;22.506;2023-02-26T17:21:49;14.60;;;6.90;;
62401;SDS011;48440;51.224;22.506;2023-02-26T17:24:39;15.23;;;6.72;;
62401;SDS011;48440;51.224;22.506;2023-02-26T17:27:05;16.70;;;7.15;;
62401;SDS011;48440;51.224;22.506;2023-02-26T17:29:36;18.25;;;7.47;;
62401;SDS011;48440;51.224;22.506;2023-02-26T17:32:04;26.38;;;9.43;;
62401;SDS011;48440;51.224;22.506;2023-02-26T17:34:31;31.20;;;10.15;;
62401;SDS011;48440;51.224;22.506;2023-02-26T17:36:57;30.98;;;10.70;;
62401;SDS011;48440;51.224;22.506;2023-02-26T17:39:23;29.15;;;11.23;;
62401;SDS011;48440;51.224;22.506;2023-02-26T17:41:50;28.55;;;9.60;;
62401;SDS011;48440;51.224;22.506;2023-02-26T17:44:15;26.20;;;9.60;;
62401;SDS011;48440;51.224;22.506;2023-02-26T17:46:41;22.80;;;8.90;;
62401;SDS011;48440;51.224;22.506;2023-02-26T17:49:06;17.58;;;8.13;;
62401;SDS011;48440;51.224;22.506;2023-02-26T17:51:32;15.75;;;6.70;;
62401;SDS011;48440;51.224;22.506;2023-02-26T17:53:58;12.75;;;6.50;;
62401;SDS011;48440;51.224;22.506;2023-02-26T17:56:25;16.73;;;7.10;;
62401;SDS011;48440;51.224;22.506;2023-02-26T17:58:52;15.05;;;6.53;;
62401;SDS011;48440;51.224;22.506;2023-02-26T18:01:19;16.75;;;7.13;;
62401;SDS011;48440;51.224;22.506;2023-02-26T18:03:47;16.85;;;6.20;;
62401;SDS011;48440;51.224;22.506;2023-02-26T18:06:13;15.45;;;6.20;;
62401;SDS011;48440;51.224;22.506;2023-02-26T18:08:40;15.77;;;6.75;;
62401;SDS011;48440;51.224;22.506;2023-02-26T18:11:06;19.65;;;7.72;;
62401;SDS011;48440;51.224;22.506;2023-02-26T18:13:35;17.55;;;8.50;;
62401;SDS011;48440;51.224;22.506;2023-02-26T18:16:00;18.10;;;8.52;;
62401;SDS011;48440;51.224;22.506;2023-02-26T18:18:27;20.20;;;9.00;;
62401;SDS011;48440;51.224;22.506;2023-02-26T18:20:53;24.98;;;10.07;;
62401;SDS011;48440;51.224;22.506;2023-02-26T18:23:19;19.13;;;8.48;;
62401;SDS011;48440;51.224;22.506;2023-02-26T18:25:47;15.30;;;7.45;;
62401;SDS011;48440;51.224;22.506;2023-02-26T18:30:42;25.90;;;11.02;;
62401;SDS011;48440;51.224;22.506;2023-02-26T18:33:09;25.58;;;10.15;;
62401;SDS011;48440;51.224;22.506;2023-02-26T18:35:36;27.38;;;11.50;;
62401;SDS011;48440;51.224;22.506;2023-02-26T18:38:09;28.73;;;12.10;;
62401;SDS011;48440;51.224;22.506;2023-02-26T18:40:39;22.45;;;8.65;;